ADDS METAR Data INFO
IDs: Format: Raw Decoded Include TAF

Data at: 0023 UTC 23 Oct 2017

KSPG 222353Z 14010KT 10SM FEW044 SCT075 28/23 A3003 RMK AO2 RAB21E32 SLP168 P0000 60000 T02830233 10306 20278 53005
KSPG 222253Z 16004KT 10SM FEW050 28/24 A3002 RMK AO2 SLP164 T02830239
KSPG 222153Z 15006KT 10SM CLR 29/24 A3001 RMK AO2 SLP161 T02890239
KSPG 222053Z 16008KT 10SM FEW050 29/23 A3001 RMK AO2 RAE1955 SLP162 P0000 60000 T02940228 56014
KSPG 221953Z 16006KT 9SM -RA SCT049 BKN070 30/23 A3002 RMK AO2 RAB39 SLP165 P0000 T03000233
KSPG 221853Z 14006KT 10SM FEW050 31/23 A3003 RMK AO2 SLP169 T03060228
KSPG 221753Z 14009KT 10SM FEW040 30/23 A3005 RMK AO2 SLP176 T03000228 10300 20244 58018
KSPG 221653Z 13011KT 10SM FEW038 29/23 A3008 RMK AO2 SLP186 T02940233
KSPG 221553Z 13011KT 10SM SCT029 BKN037 28/24 A3010 RMK AO2 SLP191 T02830239
KSPG 221453Z 12009KT 10SM FEW029 FEW035 27/24 A3011 RMK AO2 SLP195 T02720239 51009
KSPG 221353Z 11009KT 10SM CLR 26/23 A3011 RMK AO2 SLP194 T02560233
KSPG 221253Z 08013KT 10SM CLR 25/23 A3009 RMK AO2 SLP189 T02500233
KSPG 221153Z 09013KT 10SM BKN033 24/23 A3008 RMK AO2 SLP186 T02440228 10250 20244 53007
KSPG 221053Z 10014KT 10SM CLR 24/23 A3006 RMK AO2 SLP179 T02440228
KSPG 220953Z AUTO 09012KT 10SM CLR 24/23 A3006 RMK AO2 SLP177 T02440228
KSPG 220853Z AUTO 08012KT 10SM CLR 24/23 A3006 RMK AO2 SLP178 T02440228 55008
KSPG 220753Z AUTO 09012KT 10SM FEW026 FEW031 24/22 A3006 RMK AO2 SLP177 T02440222
KSPG 220653Z AUTO 09013KT 10SM CLR 25/22 A3007 RMK AO2 SLP182 T02500222
KSPG 220553Z AUTO 09014KT 10SM CLR 25/22 A3008 RMK AO2 SLP187 T02500222 10272 20250 56016
KSPG 220453Z AUTO 09014KT 10SM CLR 25/22 A3009 RMK AO2 SLP189 T02500217 402940233
KSPG 220353Z AUTO 09016KT 10SM CLR 26/22 A3012 RMK AO2 SLP198 T02560217
KSPG 220253Z AUTO 10014KT 10SM CLR 26/21 A3013 RMK AO2 SLP202 T02610211 53012
KSPG 220153Z AUTO 09015KT 10SM CLR 26/21 A3011 RMK AO2 SLP195 T02610211
KSPG 220053Z AUTO 09018KT 10SM CLR 27/22 A3010 RMK AO2 SLP192 T02670217
KSPG 212353Z 09017KT 10SM SCT070 27/21 A3010 RMK AO2 SLP190 T02720211 10294 20272 51012
KSPG 212253Z 10016KT 10SM OVC070 27/21 A3009 RMK AO2 SLP187 T02720211
KSPG 212153Z 10014KT 10SM FEW070 28/21 A3008 RMK AO2 SLP184 T02830211
KSPG 212053Z 10017KT 10SM CLR 28/22 A3006 RMK AO2 SLP178 T02830217 55008
KSPG 211953Z 09013KT 10SM SCT045 28/22 A3006 RMK AO2 SLP178 T02830217
KSPG 211853Z 09012KT 10SM SCT048 29/22 A3006 RMK AO2 SLP179 T02890222
KSPG 211753Z 08015KT 10SM CLR 28/20 A3008 RMK AO2 SLP186 T02830200 10283 20239 58013
KSPG 211653Z 08014KT 10SM CLR 28/21 A3010 RMK AO2 SLP194 T02780206
KSPG 211553Z 10015KT 10SM CLR 28/21 A3012 RMK AO2 SLP199 T02780206
KSPG 211453Z 09015KT 10SM CLR 27/21 A3012 RMK AO2 SLP199 T02670206 51013
KSPG 211353Z 09013KT 10SM CLR 24/22 A3012 RMK AO2 SLP198 T02440217
KSPG 211253Z 08016KT 10SM CLR 24/22 A3010 RMK AO2 SLP193 T02390217